createdAt,value
2023-05-18T00:02:16.149Z,10.26
2023-05-18T00:04:43.155Z,10.27
2023-05-18T00:07:11.442Z,10.27
2023-05-18T00:09:37.844Z,10.27
2023-05-18T00:12:05.995Z,10.24
2023-05-18T00:14:32.537Z,10.23
2023-05-18T00:17:01.762Z,10.22
2023-05-18T00:19:29.810Z,10.21
2023-05-18T00:21:58.177Z,10.19
2023-05-18T00:24:24.682Z,10.18
2023-05-18T00:26:52.281Z,10.15
2023-05-18T00:29:18.946Z,10.15
2023-05-18T00:31:46.893Z,10.14
2023-05-18T00:34:14.847Z,10.11
2023-05-18T00:36:43.015Z,10.08
2023-05-18T00:39:09.637Z,10.06
2023-05-18T00:41:37.715Z,10.03
2023-05-18T00:44:04.986Z,10.01
2023-05-18T00:46:33.470Z,9.99
2023-05-18T00:49:03.585Z,9.99
2023-05-18T00:51:32.845Z,9.97
2023-05-18T00:54:00.427Z,9.97
2023-05-18T00:56:28.418Z,9.94
2023-05-18T00:58:57.074Z,9.91
2023-05-18T01:01:28.868Z,9.86
2023-05-18T01:03:56.692Z,9.85
2023-05-18T01:06:26.467Z,9.83
2023-05-18T01:08:54.694Z,9.80
2023-05-18T01:11:47.627Z,9.75
2023-05-18T01:14:30.627Z,9.78
2023-05-18T01:17:03.671Z,9.76
2023-05-18T01:19:53.589Z,9.74
2023-05-18T01:22:26.489Z,9.73
2023-05-18T01:25:04.752Z,9.71
2023-05-18T01:27:37.676Z,9.70
2023-05-18T01:30:08.521Z,9.67
2023-05-18T01:32:42.650Z,9.64
2023-05-18T01:35:09.608Z,9.64
2023-05-18T01:37:36.132Z,9.63
2023-05-18T01:40:05.129Z,9.58
2023-05-18T01:42:36.298Z,9.55
2023-05-18T01:45:08.952Z,9.54
2023-05-18T01:47:40.132Z,9.50
2023-05-18T01:50:13.869Z,9.46
2023-05-18T01:52:54.294Z,9.42
2023-05-18T01:55:23.434Z,9.43
2023-05-18T01:57:52.723Z,9.40
2023-05-18T02:00:20.218Z,9.38
2023-05-18T02:02:46.863Z,9.37
2023-05-18T02:05:13.524Z,9.35
2023-05-18T02:07:40.840Z,9.34
2023-05-18T02:10:08.149Z,9.32
2023-05-18T02:12:34.794Z,9.30
2023-05-18T02:15:05.486Z,9.29
2023-05-18T02:17:39.191Z,9.25
2023-05-18T02:20:07.376Z,9.23
2023-05-18T02:22:34.588Z,9.22
2023-05-18T02:25:01.377Z,9.19
2023-05-18T02:27:28.271Z,9.17
2023-05-18T02:29:54.904Z,9.16
2023-05-18T02:32:21.557Z,9.13
2023-05-18T02:34:52.822Z,9.11
2023-05-18T02:37:19.649Z,9.12
2023-05-18T02:39:46.218Z,9.11
2023-05-18T02:42:13.757Z,9.10
2023-05-18T02:44:42.075Z,9.09
2023-05-18T02:47:08.729Z,9.09
2023-05-18T02:49:35.435Z,9.07
2023-05-18T02:52:02.116Z,9.05
2023-05-18T02:54:28.722Z,9.02
2023-05-18T02:56:57.085Z,8.99
2023-05-18T02:59:23.775Z,8.96
2023-05-18T03:01:50.761Z,8.94
2023-05-18T03:04:17.635Z,8.92
2023-05-18T03:06:46.664Z,8.92
2023-05-18T03:09:13.527Z,8.89
2023-05-18T03:11:40.068Z,8.88
2023-05-18T03:14:06.690Z,8.85
2023-05-18T03:16:33.887Z,8.85
2023-05-18T03:19:02.311Z,8.83
2023-05-18T03:21:33.638Z,8.83
2023-05-18T03:24:00.700Z,8.82
2023-05-18T03:26:30.888Z,8.80
2023-05-18T03:28:58.262Z,8.78
2023-05-18T03:31:25.901Z,8.77
2023-05-18T03:33:52.709Z,8.75
2023-05-18T03:36:22.385Z,8.72
2023-05-18T03:38:49.085Z,8.71
2023-05-18T03:41:15.696Z,8.69
2023-05-18T03:43:42.380Z,8.67
2023-05-18T03:46:09.052Z,8.66
2023-05-18T03:48:36.845Z,8.64
2023-05-18T03:51:03.513Z,8.65
2023-05-18T03:53:30.156Z,8.64
2023-05-18T03:55:56.979Z,8.63
2023-05-18T03:58:23.701Z,8.62
2023-05-18T04:00:50.393Z,8.62
2023-05-18T04:03:17.252Z,8.60
2023-05-18T04:05:44.958Z,8.60
2023-05-18T04:08:14.568Z,8.59
2023-05-18T04:10:44.976Z,8.56
2023-05-18T04:13:12.205Z,8.58
2023-05-18T04:15:38.759Z,8.56
2023-05-18T04:18:05.595Z,8.55
2023-05-18T04:20:32.355Z,8.54
2023-05-18T04:22:59.094Z,8.51
2023-05-18T04:25:28.086Z,8.50
2023-05-18T04:27:56.142Z,8.49
2023-05-18T04:30:23.477Z,8.49
2023-05-18T04:32:51.010Z,8.48
2023-05-18T04:35:18.726Z,8.48
2023-05-18T04:37:45.717Z,8.48
2023-05-18T04:40:13.916Z,8.50
2023-05-18T04:42:48.840Z,8.50
2023-05-18T04:45:17.844Z,8.53
2023-05-18T04:47:46.590Z,8.55
2023-05-18T04:50:17.606Z,8.55
2023-05-18T04:52:48.581Z,8.59
2023-05-18T04:55:20.160Z,8.59
2023-05-18T04:57:47.759Z,8.61
2023-05-18T05:00:15.183Z,8.62
2023-05-18T05:02:41.908Z,8.64
2023-05-18T05:05:08.970Z,8.66
2023-05-18T05:07:35.678Z,8.68
2023-05-18T05:10:02.677Z,8.69
2023-05-18T05:12:29.530Z,8.73
2023-05-18T05:14:56.332Z,8.77
2023-05-18T05:17:23.591Z,8.81
2023-05-18T05:19:50.123Z,8.84
2023-05-18T05:22:17.946Z,8.89
2023-05-18T05:24:44.583Z,8.94
2023-05-18T05:27:11.241Z,8.97
2023-05-18T05:29:37.860Z,9.03
2023-05-18T05:32:05.267Z,9.08
2023-05-18T05:34:31.936Z,9.15
2023-05-18T05:36:58.482Z,9.21
2023-05-18T05:39:25.037Z,9.29
2023-05-18T05:41:51.666Z,9.35
2023-05-18T05:44:18.185Z,9.43
2023-05-18T05:46:44.894Z,9.49
2023-05-18T05:49:11.888Z,9.54
2023-05-18T05:51:38.403Z,9.59
2023-05-18T05:54:05.102Z,9.63
2023-05-18T05:56:31.559Z,9.67
2023-05-18T05:58:58.165Z,9.71
2023-05-18T06:01:24.774Z,9.75
2023-05-18T06:03:52.008Z,9.82
2023-05-18T06:06:18.524Z,9.88
2023-05-18T06:08:45.234Z,9.95
2023-05-18T06:11:12.081Z,10.01
2023-05-18T06:13:38.963Z,10.06
2023-05-18T06:16:05.879Z,10.12
2023-05-18T06:18:32.624Z,10.17
2023-05-18T06:20:59.190Z,10.22
2023-05-18T06:23:25.890Z,10.26
2023-05-18T06:25:53.321Z,10.32
2023-05-18T06:28:20.035Z,10.36
2023-05-18T06:30:46.850Z,10.40
2023-05-18T06:33:14.507Z,10.45
2023-05-18T06:35:41.266Z,10.51
2023-05-18T06:38:08.631Z,10.54
2023-05-18T06:40:35.329Z,10.58
2023-05-18T06:43:01.970Z,10.63
2023-05-18T06:45:28.790Z,10.67
2023-05-18T06:47:55.714Z,10.72
2023-05-18T07:21:43.496Z,11.60
2023-05-18T07:24:10.045Z,11.68
2023-05-18T07:26:36.700Z,11.77
2023-05-18T07:29:03.340Z,11.88
2023-05-18T07:31:42.176Z,11.93
2023-05-18T07:34:08.782Z,12.04
2023-05-18T07:36:35.362Z,12.10
2023-05-18T07:39:02.034Z,12.18
2023-05-18T07:41:28.621Z,12.23
2023-05-18T07:43:55.169Z,12.29
2023-05-18T07:46:21.798Z,12.34
2023-05-18T07:48:48.297Z,12.41
2023-05-18T07:51:14.957Z,12.49
2023-05-18T07:53:52.085Z,12.54
2023-05-18T07:56:18.814Z,12.66
2023-05-18T07:58:45.438Z,12.76
2023-05-18T08:01:12.007Z,12.85
2023-05-18T08:03:38.759Z,12.95
2023-05-18T08:06:05.667Z,13.07
2023-05-18T08:08:32.237Z,13.21
2023-05-18T08:13:39.914Z,13.51
2023-05-18T08:16:11.645Z,13.63
2023-05-18T08:21:29.569Z,13.89
2023-05-18T08:23:56.348Z,13.94
2023-05-18T08:26:22.932Z,14.01
2023-05-18T08:28:49.786Z,14.06
2023-05-18T08:31:22.715Z,14.12
2023-05-18T08:33:50.107Z,14.18
2023-05-18T08:36:25.781Z,14.26
2023-05-18T08:38:53.687Z,14.31
2023-05-18T08:41:26.705Z,14.29
2023-05-18T08:44:19.608Z,14.27
2023-05-18T08:46:51.055Z,14.27
2023-05-18T08:49:19.089Z,14.22
2023-05-18T08:51:56.843Z,14.18
2023-05-18T09:00:27.165Z,14.41
2023-05-18T09:03:06.178Z,14.45
2023-05-18T09:09:06.767Z,14.59
2023-05-18T09:14:40.915Z,14.85
2023-05-18T09:18:11.796Z,14.98
2023-05-18T09:20:57.467Z,15.16
2023-05-18T09:25:17.549Z,15.26
2023-05-18T09:27:17.079Z,15.45
2023-05-18T09:30:28.156Z,15.46
2023-05-18T09:33:23.808Z,15.50
2023-05-18T09:35:57.236Z,15.56
2023-05-18T09:38:29.162Z,15.58
2023-05-18T09:42:05.306Z,15.60
2023-05-18T09:53:40.942Z,15.84
2023-05-18T10:04:51.193Z,16.24
2023-05-18T10:10:30.407Z,16.39
2023-05-18T10:20:00.507Z,16.66
2023-05-18T10:22:30.987Z,16.72
2023-05-18T10:41:18.577Z,17.24
2023-05-18T10:43:46.386Z,17.50
2023-05-18T10:46:17.038Z,17.78
2023-05-18T10:48:51.519Z,18.12
2023-05-18T10:52:22.521Z,18.61
2023-05-18T10:58:05.752Z,20.14
2023-05-18T11:00:40.578Z,20.75
2023-05-18T11:03:32.635Z,21.35
2023-05-18T11:06:31.634Z,21.99
2023-05-18T11:09:27.889Z,22.57
2023-05-18T11:12:09.946Z,23.13
2023-05-18T11:18:43.685Z,24.08
2023-05-18T11:25:29.320Z,24.75
2023-05-18T11:28:39.174Z,24.87
2023-05-18T11:35:14.724Z,25.28
2023-05-18T11:43:46.551Z,26.11
2023-05-18T11:50:25.433Z,26.37
2023-05-18T11:56:50.927Z,26.46
2023-05-18T12:00:11.162Z,26.63
2023-05-18T12:06:01.402Z,26.96
2023-05-18T12:11:46.254Z,27.42
2023-05-18T12:18:00.424Z,27.81
2023-05-18T12:21:12.832Z,27.97
2023-05-18T12:27:15.676Z,28.51
2023-05-18T12:31:49.616Z,28.68
2023-05-18T12:35:07.919Z,28.95
2023-05-18T12:38:19.781Z,29.11
2023-05-18T12:44:48.010Z,29.29
2023-05-18T12:47:33.504Z,29.38
2023-05-18T12:52:29.196Z,29.57
2023-05-18T12:55:00.634Z,29.70
2023-05-18T12:57:28.023Z,29.85
2023-05-18T12:59:54.739Z,30.01
2023-05-18T13:02:32.617Z,30.10
2023-05-18T13:05:05.294Z,30.18
2023-05-18T13:07:31.997Z,30.21
2023-05-18T13:10:05.591Z,30.21
2023-05-18T13:12:37.910Z,30.24
2023-05-18T13:15:12.351Z,30.27
2023-05-18T13:17:39.107Z,30.37
2023-05-18T13:20:15.607Z,30.35
2023-05-18T13:22:43.592Z,30.37
2023-05-18T13:25:10.552Z,30.40
2023-05-18T13:27:38.166Z,30.47
2023-05-18T13:30:05.216Z,30.56
2023-05-18T13:32:31.703Z,30.72
2023-05-18T13:34:58.191Z,30.88
2023-05-18T13:37:24.825Z,31.01
2023-05-18T13:39:51.389Z,31.09
2023-05-18T13:42:21.100Z,31.16
2023-05-18T13:44:48.103Z,31.23
2023-05-18T13:47:14.494Z,31.30
2023-05-18T13:49:40.905Z,31.37
2023-05-18T13:52:07.326Z,31.39
2023-05-18T13:54:33.737Z,31.39
2023-05-18T13:57:00.160Z,31.40
2023-05-18T13:59:27.533Z,31.38
2023-05-18T14:01:53.969Z,31.36
2023-05-18T14:04:20.392Z,31.35
2023-05-18T14:06:46.778Z,31.35
2023-05-18T14:09:13.260Z,31.41
2023-05-18T14:11:39.737Z,31.52
2023-05-18T14:14:06.539Z,31.62
2023-05-18T14:16:33.091Z,31.70
2023-05-18T14:18:59.550Z,31.79
2023-05-18T14:21:25.983Z,31.84
2023-05-18T14:23:52.420Z,31.86
2023-05-18T14:26:18.988Z,31.92
2023-05-18T14:28:46.226Z,31.98
2023-05-18T14:31:12.769Z,32.07
2023-05-18T14:33:39.257Z,32.15
2023-05-18T14:36:05.897Z,32.20
2023-05-18T14:38:32.448Z,32.22
2023-05-18T14:40:58.934Z,32.20
2023-05-18T14:43:25.362Z,32.13
2023-05-18T14:46:06.894Z,32.01
2023-05-18T14:48:34.786Z,32.00
2023-05-18T14:51:01.181Z,32.08
2023-05-18T14:53:27.515Z,32.04
2023-05-18T14:55:53.964Z,31.93
2023-05-18T14:58:20.694Z,31.80
2023-05-18T15:00:47.090Z,31.73
2023-05-18T15:03:13.685Z,31.72
2023-05-18T15:05:40.313Z,31.77
2023-05-18T15:08:06.742Z,31.87
2023-05-18T15:10:33.404Z,31.94
2023-05-18T15:12:59.888Z,32.00
2023-05-18T15:15:26.736Z,32.04
2023-05-18T15:17:53.479Z,32.06
2023-05-18T15:20:20.011Z,32.04
2023-05-18T15:22:46.549Z,32.00
2023-05-18T15:25:12.971Z,31.95
2023-05-18T15:27:39.426Z,31.97
2023-05-18T15:30:11.243Z,32.00
2023-05-18T15:32:38.577Z,32.01
2023-05-18T15:35:06.091Z,31.97
2023-05-18T15:37:32.748Z,31.90
2023-05-18T15:39:59.481Z,31.75
2023-05-18T15:42:26.309Z,31.62
2023-05-18T15:44:52.752Z,31.55
2023-05-18T15:47:19.171Z,31.54
2023-05-18T15:49:45.644Z,31.55
2023-05-18T15:52:12.121Z,31.57
2023-05-18T15:54:38.829Z,31.55
2023-05-18T15:57:05.518Z,31.51
2023-05-18T15:59:31.932Z,31.45
2023-05-18T16:01:58.391Z,31.38
2023-05-18T16:04:24.805Z,31.31
2023-05-18T16:06:51.268Z,31.21
2023-05-18T16:09:17.682Z,31.06
2023-05-18T16:11:44.167Z,30.90
2023-05-18T16:14:10.698Z,30.73
2023-05-18T16:16:37.252Z,30.61
2023-05-18T16:19:05.397Z,30.50
2023-05-18T16:21:31.990Z,30.41
2023-05-18T16:23:58.850Z,30.28
2023-05-18T16:26:26.222Z,30.10
2023-05-18T16:28:52.636Z,29.85
2023-05-18T16:31:19.213Z,29.55
2023-05-18T16:33:45.694Z,29.27
2023-05-18T16:36:12.420Z,28.96
2023-05-18T16:38:39.200Z,28.63
2023-05-18T16:41:06.402Z,28.24
2023-05-18T16:43:33.487Z,27.84
2023-05-18T16:46:00.015Z,27.41
2023-05-18T16:48:26.470Z,26.97
2023-05-18T16:50:55.002Z,26.51
2023-05-18T16:53:21.419Z,26.06
2023-05-18T16:55:48.357Z,25.59
2023-05-18T16:58:14.842Z,25.17
2023-05-18T17:00:41.302Z,24.78
2023-05-18T17:03:07.868Z,24.41
2023-05-18T17:05:35.310Z,24.05
2023-05-18T17:08:01.755Z,23.75
2023-05-18T17:10:28.172Z,23.48
2023-05-18T17:12:55.180Z,23.22
2023-05-18T17:15:21.716Z,22.97
2023-05-18T17:17:48.230Z,22.73
2023-05-18T17:20:15.065Z,22.53
2023-05-18T17:22:41.497Z,22.33
2023-05-18T17:25:08.436Z,22.16
2023-05-18T17:27:34.876Z,21.96
2023-05-18T17:30:01.302Z,21.79
2023-05-18T17:32:27.832Z,21.63
2023-05-18T17:34:54.241Z,21.44
2023-05-18T17:37:20.717Z,21.28
2023-05-18T17:39:47.208Z,21.16
2023-05-18T17:42:13.675Z,21.04
2023-05-18T17:44:40.349Z,20.91
2023-05-18T17:47:07.018Z,20.79
2023-05-18T17:49:34.100Z,20.68
2023-05-18T17:52:00.596Z,20.57
2023-05-18T17:54:27.104Z,20.47
2023-05-18T17:56:53.589Z,20.35
2023-05-18T17:59:19.992Z,20.24
2023-05-18T18:01:46.480Z,20.12
2023-05-18T18:04:13.137Z,20.01
2023-05-18T18:06:39.702Z,19.91
2023-05-18T18:09:06.537Z,19.83
2023-05-18T18:11:33.118Z,19.75
2023-05-18T18:13:59.896Z,19.69
2023-05-18T18:16:26.504Z,19.62
2023-05-18T18:18:53.136Z,19.56
2023-05-18T18:21:19.650Z,19.52
2023-05-18T18:23:46.115Z,19.46
2023-05-18T18:26:12.648Z,19.43
2023-05-18T18:28:39.303Z,19.38
2023-05-18T18:31:05.797Z,19.33
2023-05-18T18:33:34.803Z,19.24
2023-05-18T18:36:02.156Z,19.19
2023-05-18T18:38:28.925Z,19.10
2023-05-18T18:41:01.573Z,19.02
2023-05-18T18:43:28.600Z,18.96
2023-05-18T18:45:56.871Z,18.87
2023-05-18T18:48:23.763Z,18.80
2023-05-18T18:50:50.519Z,18.73
2023-05-18T18:53:17.269Z,18.68
2023-05-18T18:55:43.764Z,18.61
2023-05-18T18:58:10.319Z,18.55
2023-05-18T19:00:36.987Z,18.48
2023-05-18T19:03:04.083Z,18.41
2023-05-18T19:05:31.738Z,18.35
2023-05-18T19:07:58.627Z,18.30
2023-05-18T19:10:25.520Z,18.23
2023-05-18T19:12:52.959Z,18.16
2023-05-18T19:15:21.246Z,18.07
2023-05-18T19:17:52.211Z,18.01
2023-05-18T19:20:19.086Z,17.93
2023-05-18T19:22:45.736Z,17.86
2023-05-18T19:25:12.292Z,17.78
2023-05-18T19:27:38.860Z,17.71
2023-05-18T19:30:07.226Z,17.65
2023-05-18T19:32:33.921Z,17.58
2023-05-18T19:35:00.503Z,17.51
2023-05-18T19:37:26.988Z,17.45
2023-05-18T19:39:53.598Z,17.39
2023-05-18T19:42:20.126Z,17.35
2023-05-18T19:44:46.605Z,17.29
2023-05-18T19:47:13.133Z,17.24
2023-05-18T19:49:39.704Z,17.20
2023-05-18T19:52:08.341Z,17.15
2023-05-18T19:54:38.324Z,17.09
2023-05-18T19:57:05.144Z,17.05
2023-05-18T19:59:31.758Z,17.00
2023-05-18T20:01:59.326Z,16.95
2023-05-18T20:04:28.373Z,16.90
2023-05-18T20:06:59.288Z,16.84
2023-05-18T20:09:26.415Z,16.79
2023-05-18T20:11:54.298Z,16.74
2023-05-18T20:14:21.241Z,16.71
2023-05-18T20:16:48.596Z,16.66
2023-05-18T20:19:17.743Z,16.62
2023-05-18T20:21:47.618Z,16.57
2023-05-18T20:24:14.279Z,16.54
2023-05-18T20:26:40.916Z,16.49
2023-05-18T20:29:07.630Z,16.45
2023-05-18T20:31:34.205Z,16.38
2023-05-18T20:34:00.852Z,16.35
2023-05-18T20:36:27.456Z,16.30
2023-05-18T20:38:54.334Z,16.27
2023-05-18T20:41:20.919Z,16.24
2023-05-18T20:43:50.219Z,16.20
2023-05-18T20:46:17.051Z,16.18
2023-05-18T20:48:44.750Z,16.14
2023-05-18T20:51:17.566Z,16.11
2023-05-18T20:53:44.893Z,16.07
2023-05-18T20:56:12.397Z,16.03
2023-05-18T20:58:42.534Z,15.99
2023-05-18T21:01:10.734Z,15.95
2023-05-18T21:03:38.441Z,15.92
2023-05-18T21:06:05.306Z,15.88
2023-05-18T21:08:32.421Z,15.84
2023-05-18T21:10:58.865Z,15.80
2023-05-18T21:13:25.447Z,15.75
2023-05-18T21:15:52.096Z,15.72
2023-05-18T21:18:18.675Z,15.69
2023-05-18T21:20:45.206Z,15.63
2023-05-18T21:23:11.688Z,15.58
2023-05-18T21:25:38.485Z,15.54
2023-05-18T21:28:05.129Z,15.47
2023-05-18T21:30:32.304Z,15.41
2023-05-18T21:32:59.134Z,15.35
2023-05-18T21:35:27.136Z,15.29
2023-05-18T21:37:53.633Z,15.22
2023-05-18T21:40:20.117Z,15.15
2023-05-18T21:42:47.187Z,15.08
2023-05-18T21:45:13.901Z,15.00
2023-05-18T21:47:40.717Z,14.93
2023-05-18T21:50:07.845Z,14.85
2023-05-18T21:52:34.377Z,14.77
2023-05-18T21:55:00.911Z,14.67
2023-05-18T21:57:27.405Z,14.61
2023-05-18T21:59:53.880Z,14.53
2023-05-18T22:02:20.399Z,14.45
2023-05-18T22:04:46.905Z,14.38
2023-05-18T22:07:14.686Z,14.32
2023-05-18T22:09:41.167Z,14.26
2023-05-18T22:12:07.808Z,14.22
2023-05-18T22:14:34.346Z,14.17
2023-05-18T22:17:02.231Z,14.15
2023-05-18T22:19:28.943Z,14.12
2023-05-18T22:21:55.683Z,14.06
2023-05-18T22:24:22.243Z,14.03
2023-05-18T22:26:48.776Z,13.97
2023-05-18T22:29:15.448Z,13.92
2023-05-18T22:31:41.999Z,13.86
2023-05-18T22:34:08.725Z,13.80
2023-05-18T22:36:35.367Z,13.74
2023-05-18T22:39:01.900Z,13.68
2023-05-18T22:41:28.371Z,13.62
2023-05-18T22:43:55.061Z,13.57
2023-05-18T22:46:21.885Z,13.54
2023-05-18T22:48:48.372Z,13.50
2023-05-18T22:51:15.608Z,13.47
2023-05-18T22:53:42.214Z,13.45
2023-05-18T22:56:08.740Z,13.42
2023-05-18T22:58:35.288Z,13.39
2023-05-18T23:01:02.013Z,13.37
2023-05-18T23:03:28.614Z,13.35
2023-05-18T23:05:55.230Z,13.32
2023-05-18T23:08:21.676Z,13.28
2023-05-18T23:10:48.291Z,13.25
2023-05-18T23:13:16.200Z,13.21
2023-05-18T23:15:42.880Z,13.19
2023-05-18T23:18:10.207Z,13.15
2023-05-18T23:20:38.587Z,13.13
2023-05-18T23:23:05.309Z,13.09
2023-05-18T23:25:31.979Z,13.08
2023-05-18T23:27:58.719Z,13.05
2023-05-18T23:30:25.339Z,13.01
2023-05-18T23:32:53.078Z,12.98
2023-05-18T23:35:20.107Z,12.97
2023-05-18T23:37:50.087Z,12.94
2023-05-18T23:40:19.277Z,12.93
2023-05-18T23:42:46.383Z,12.91
2023-05-18T23:45:13.894Z,12.90
2023-05-18T23:47:40.887Z,12.90
2023-05-18T23:50:08.186Z,12.88
2023-05-18T23:52:36.192Z,12.87
2023-05-18T23:55:04.036Z,12.84
2023-05-18T23:57:31.653Z,12.84
2023-05-18T23:59:58.476Z,12.82
